sensor_id;sensor_type;location;lat;lon;timestamp;pressure;altitude;pressure_sealevel;temperature;humidity
38054;BME280;23859;50.672;7.164;2023-02-28T00:01:22;102020.53;;;1.57;78.49
38054;BME280;23859;50.672;7.164;2023-02-28T00:03:48;102021.41;;;1.57;78.90
38054;BME280;23859;50.672;7.164;2023-02-28T00:06:14;102024.84;;;1.59;77.44
38054;BME280;23859;50.672;7.164;2023-02-28T00:08:40;102021.50;;;1.54;77.77
38054;BME280;23859;50.672;7.164;2023-02-28T00:11:09;102011.34;;;1.44;78.05
38054;BME280;23859;50.672;7.164;2023-02-28T00:13:37;102015.09;;;1.35;78.77
38054;BME280;23859;50.672;7.164;2023-02-28T00:16:05;102015.88;;;1.39;79.18
38054;BME280;23859;50.672;7.164;2023-02-28T00:18:32;102005.56;;;1.33;79.88
38054;BME280;23859;50.672;7.164;2023-02-28T00:20:58;102012.41;;;1.37;79.38
38054;BME280;23859;50.672;7.164;2023-02-28T00:23:25;102012.31;;;1.40;79.02
38054;BME280;23859;50.672;7.164;2023-02-28T00:25:53;102011.47;;;1.39;79.11
38054;BME280;23859;50.672;7.164;2023-02-28T00:28:19;102025.56;;;1.35;79.64
38054;BME280;23859;50.672;7.164;2023-02-28T00:30:45;102011.66;;;1.33;78.81
38054;BME280;23859;50.672;7.164;2023-02-28T00:33:12;102015.00;;;1.38;79.22
38054;BME280;23859;50.672;7.164;2023-02-28T00:35:38;102018.38;;;1.42;79.00
38054;BME280;23859;50.672;7.164;2023-02-28T00:38:04;102016.53;;;1.45;79.52
38054;BME280;23859;50.672;7.164;2023-02-28T00:40:30;102022.72;;;1.43;80.59
38054;BME280;23859;50.672;7.164;2023-02-28T00:42:56;102020.88;;;1.46;80.12
38054;BME280;23859;50.672;7.164;2023-02-28T00:45:22;102011.53;;;1.36;80.45
38054;BME280;23859;50.672;7.164;2023-02-28T00:47:48;102012.31;;;1.41;79.67
38054;BME280;23859;50.672;7.164;2023-02-28T00:50:17;102018.44;;;1.40;79.50
38054;BME280;23859;50.672;7.164;2023-02-28T00:52:44;102015.75;;;1.42;78.90
38054;BME280;23859;50.672;7.164;2023-02-28T00:55:11;102018.59;;;1.34;78.90
38054;BME280;23859;50.672;7.164;2023-02-28T00:57:37;102019.44;;;1.35;79.34
38054;BME280;23859;50.672;7.164;2023-02-28T01:00:04;102016.72;;;1.39;80.07
38054;BME280;23859;50.672;7.164;2023-02-28T01:02:30;102020.22;;;1.38;82.04
38054;BME280;23859;50.672;7.164;2023-02-28T01:04:56;102024.84;;;1.29;80.69
38054;BME280;23859;50.672;7.164;2023-02-28T01:07:25;102024.00;;;1.29;82.11
38054;BME280;23859;50.672;7.164;2023-02-28T01:09:51;102019.00;;;1.50;80.45
38054;BME280;23859;50.672;7.164;2023-02-28T01:12:17;102023.84;;;1.34;80.00
38054;BME280;23859;50.672;7.164;2023-02-28T01:14:43;102026.41;;;1.36;80.95
38054;BME280;23859;50.672;7.164;2023-02-28T01:17:09;102034.25;;;1.36;79.02
38054;BME280;23859;50.672;7.164;2023-02-28T01:19:36;102025.63;;;1.32;80.34
38054;BME280;23859;50.672;7.164;2023-02-28T01:22:03;102022.06;;;1.35;80.73
38054;BME280;23859;50.672;7.164;2023-02-28T01:24:29;102027.34;;;1.33;79.82
38054;BME280;23859;50.672;7.164;2023-02-28T01:26:55;102031.00;;;1.57;79.91
38054;BME280;23859;50.672;7.164;2023-02-28T01:29:21;102024.44;;;1.44;79.21
38054;BME280;23859;50.672;7.164;2023-02-28T01:31:47;102026.34;;;1.37;78.62
38054;BME280;23859;50.672;7.164;2023-02-28T01:34:13;102026.47;;;1.34;79.48
38054;BME280;23859;50.672;7.164;2023-02-28T01:36:39;102025.72;;;1.30;80.39
38054;BME280;23859;50.672;7.164;2023-02-28T01:39:05;102018.94;;;1.23;80.47
38054;BME280;23859;50.672;7.164;2023-02-28T01:41:34;102023.34;;;1.21;81.03
38054;BME280;23859;50.672;7.164;2023-02-28T01:44:54;102020.28;;;1.37;80.53
38054;BME280;23859;50.672;7.164;2023-02-28T01:46:53;102015.25;;;1.30;82.62
38054;BME280;23859;50.672;7.164;2023-02-28T01:49:19;102015.97;;;1.34;81.13
38054;BME280;23859;50.672;7.164;2023-02-28T01:51:51;102012.53;;;1.32;81.97
38054;BME280;23859;50.672;7.164;2023-02-28T01:54:29;102006.91;;;1.16;83.99
38054;BME280;23859;50.672;7.164;2023-02-28T01:57:06;102009.69;;;1.11;83.39
38054;BME280;23859;50.672;7.164;2023-02-28T01:59:54;102010.97;;;0.97;84.19
38054;BME280;23859;50.672;7.164;2023-02-28T02:02:23;102002.28;;;0.95;84.52
38054;BME280;23859;50.672;7.164;2023-02-28T02:05:07;102004.19;;;0.90;84.99
38054;BME280;23859;50.672;7.164;2023-02-28T02:07:36;101998.16;;;0.88;84.43
38054;BME280;23859;50.672;7.164;2023-02-28T02:13:12;101996.00;;;0.70;86.56
38054;BME280;23859;50.672;7.164;2023-02-28T02:15:49;102001.44;;;0.63;87.36
38054;BME280;23859;50.672;7.164;2023-02-28T02:18:30;101991.72;;;0.67;86.85
38054;BME280;23859;50.672;7.164;2023-02-28T02:21:19;101988.91;;;0.75;85.90
38054;BME280;23859;50.672;7.164;2023-02-28T02:37:52;101988.44;;;0.26;87.04
38054;BME280;23859;50.672;7.164;2023-02-28T02:40:28;101985.34;;;0.12;89.03
38054;BME280;23859;50.672;7.164;2023-02-28T02:43:17;101866.09;;;-0.58;88.17
38054;BME280;23859;50.672;7.164;2023-02-28T02:45:52;101996.03;;;0.02;89.90
38054;BME280;23859;50.672;7.164;2023-02-28T02:48:24;101992.63;;;-0.02;90.79
38054;BME280;23859;50.672;7.164;2023-02-28T02:51:00;101987.09;;;0.10;90.50
38054;BME280;23859;50.672;7.164;2023-02-28T02:53:37;101979.31;;;0.09;89.81
38054;BME280;23859;50.672;7.164;2023-02-28T02:56:06;101980.91;;;0.16;89.16
38054;BME280;23859;50.672;7.164;2023-02-28T02:58:36;101986.25;;;0.10;89.33
38054;BME280;23859;50.672;7.164;2023-02-28T03:01:10;101977.41;;;0.15;90.03
38054;BME280;23859;50.672;7.164;2023-02-28T03:03:38;101986.50;;;-0.01;89.42
38054;BME280;23859;50.672;7.164;2023-02-28T03:06:05;101986.59;;;-0.03;90.68
38054;BME280;23859;50.672;7.164;2023-02-28T03:08:35;101980.31;;;0.38;87.93
38054;BME280;23859;50.672;7.164;2023-02-28T03:11:10;101977.91;;;0.31;89.04
38054;BME280;23859;50.672;7.164;2023-02-28T03:14:06;101992.03;;;0.22;89.33
38054;BME280;23859;50.672;7.164;2023-02-28T03:24:55;101986.59;;;-0.03;89.74
38054;BME280;23859;50.672;7.164;2023-02-28T03:27:31;101972.13;;;0.17;87.94
38054;BME280;23859;50.672;7.164;2023-02-28T03:30:10;101971.34;;;0.13;89.24
38054;BME280;23859;50.672;7.164;2023-02-28T03:32:57;101970.59;;;0.10;89.11
38054;BME280;23859;50.672;7.164;2023-02-28T03:35:29;101852.19;;;-0.57;87.35
38054;BME280;23859;50.672;7.164;2023-02-28T03:38:09;101966.91;;;0.17;87.09
38054;BME280;23859;50.672;7.164;2023-02-28T03:40:43;101966.34;;;0.39;85.79
38054;BME280;23859;50.672;7.164;2023-02-28T03:43:16;101973.34;;;0.37;84.51
38054;BME280;23859;50.672;7.164;2023-02-28T03:45:44;101970.66;;;0.40;84.94
38054;BME280;23859;50.672;7.164;2023-02-28T03:48:26;101983.97;;;0.31;84.18
38054;BME280;23859;50.672;7.164;2023-02-28T03:50:57;101973.44;;;0.34;83.76
38054;BME280;23859;50.672;7.164;2023-02-28T03:53:40;101978.13;;;0.55;84.10
38054;BME280;23859;50.672;7.164;2023-02-28T03:56:24;101977.28;;;0.53;82.28
38054;BME280;23859;50.672;7.164;2023-02-28T03:59:00;101975.88;;;0.40;83.07
38054;BME280;23859;50.672;7.164;2023-02-28T04:01:35;101980.06;;;0.47;82.41
38054;BME280;23859;50.672;7.164;2023-02-28T04:04:03;101979.06;;;0.51;81.67
38054;BME280;23859;50.672;7.164;2023-02-28T04:06:35;101975.50;;;0.55;80.91
38054;BME280;23859;50.672;7.164;2023-02-28T04:09:03;101973.63;;;0.60;81.14
38054;BME280;23859;50.672;7.164;2023-02-28T04:11:42;101979.59;;;0.65;79.32
38054;BME280;23859;50.672;7.164;2023-02-28T04:14:10;101978.34;;;0.78;78.18
38054;BME280;23859;50.672;7.164;2023-02-28T04:16:39;101984.63;;;0.72;77.43
38054;BME280;23859;50.672;7.164;2023-02-28T04:19:07;101971.75;;;0.65;78.58
38054;BME280;23859;50.672;7.164;2023-02-28T04:21:35;101975.41;;;0.58;78.95
38054;BME280;23859;50.672;7.164;2023-02-28T04:24:03;101983.94;;;0.66;77.34
38054;BME280;23859;50.672;7.164;2023-02-28T04:26:34;101982.25;;;0.64;78.14
38054;BME280;23859;50.672;7.164;2023-02-28T04:29:06;101981.44;;;0.62;78.16
38054;BME280;23859;50.672;7.164;2023-02-28T04:31:33;101988.22;;;0.67;78.10
38054;BME280;23859;50.672;7.164;2023-02-28T04:34:00;101990.78;;;0.70;76.86
38054;BME280;23859;50.672;7.164;2023-02-28T04:36:26;101990.84;;;0.67;76.85
38054;BME280;23859;50.672;7.164;2023-02-28T04:38:53;101985.03;;;0.58;76.58
38054;BME280;23859;50.672;7.164;2023-02-28T04:41:19;101987.59;;;0.59;77.22
38054;BME280;23859;50.672;7.164;2023-02-28T04:43:45;101986.69;;;0.60;77.15
38054;BME280;23859;50.672;7.164;2023-02-28T04:46:11;101994.59;;;0.57;76.09
38054;BME280;23859;50.672;7.164;2023-02-28T04:48:39;101991.09;;;0.58;76.18
38054;BME280;23859;50.672;7.164;2023-02-28T04:51:07;101993.72;;;0.58;75.81
38054;BME280;23859;50.672;7.164;2023-02-28T04:53:35;101993.72;;;0.58;76.84
38054;BME280;23859;50.672;7.164;2023-02-28T04:56:02;101988.63;;;0.52;75.64
38054;BME280;23859;50.672;7.164;2023-02-28T04:58:29;101992.03;;;0.56;76.33
38054;BME280;23859;50.672;7.164;2023-02-28T05:01:02;101992.50;;;0.71;75.46
38054;BME280;23859;50.672;7.164;2023-02-28T05:03:28;101992.81;;;0.59;74.68
38054;BME280;23859;50.672;7.164;2023-02-28T05:05:54;101898.69;;;-0.04;74.35
38054;BME280;23859;50.672;7.164;2023-02-28T05:08:20;101995.53;;;0.56;75.82
38054;BME280;23859;50.672;7.164;2023-02-28T05:10:46;102001.66;;;0.54;75.08
38054;BME280;23859;50.672;7.164;2023-02-28T05:13:13;102009.50;;;0.55;74.89
38054;BME280;23859;50.672;7.164;2023-02-28T05:15:39;102002.66;;;0.50;74.71
38054;BME280;23859;50.672;7.164;2023-02-28T05:18:05;102005.47;;;0.42;76.37
38054;BME280;23859;50.672;7.164;2023-02-28T05:20:31;102017.03;;;0.32;75.72
38054;BME280;23859;50.672;7.164;2023-02-28T05:22:58;102014.53;;;0.29;76.65
38054;BME280;23859;50.672;7.164;2023-02-28T05:25:25;101988.66;;;0.19;76.25
38054;BME280;23859;50.672;7.164;2023-02-28T05:27:51;102014.53;;;0.29;75.98
38054;BME280;23859;50.672;7.164;2023-02-28T05:30:17;102006.69;;;0.28;75.50
38054;BME280;23859;50.672;7.164;2023-02-28T05:32:43;102007.56;;;0.28;75.15
38054;BME280;23859;50.672;7.164;2023-02-28T05:35:10;101884.78;;;-0.40;75.68
38054;BME280;23859;50.672;7.164;2023-02-28T05:37:37;102006.63;;;0.31;74.66
38054;BME280;23859;50.672;7.164;2023-02-28T05:40:05;101801.59;;;-0.88;75.89
38054;BME280;23859;50.672;7.164;2023-02-28T05:42:36;102014.56;;;0.26;76.03
38054;BME280;23859;50.672;7.164;2023-02-28T05:45:02;102016.31;;;0.27;77.62
38054;BME280;23859;50.672;7.164;2023-02-28T05:47:28;102021.53;;;0.27;76.04
38054;BME280;23859;50.672;7.164;2023-02-28T05:49:54;102018.97;;;0.24;77.51
38054;BME280;23859;50.672;7.164;2023-02-28T05:52:21;102023.59;;;0.13;76.23
38054;BME280;23859;50.672;7.164;2023-02-28T05:54:47;102020.28;;;0.07;76.38
38054;BME280;23859;50.672;7.164;2023-02-28T05:57:14;102023.03;;;0.01;78.01
38054;BME280;23859;50.672;7.164;2023-02-28T05:59:41;102022.03;;;0.06;77.20
38054;BME280;23859;50.672;7.164;2023-02-28T06:02:14;102020.47;;;-0.01;78.46
38054;BME280;23859;50.672;7.164;2023-02-28T06:04:41;102018.59;;;0.04;80.31
38054;BME280;23859;50.672;7.164;2023-02-28T06:07:08;102027.59;;;-0.07;79.76
38054;BME280;23859;50.672;7.164;2023-02-28T06:09:34;102031.00;;;-0.05;80.18
38054;BME280;23859;50.672;7.164;2023-02-28T06:12:02;102028.47;;;-0.08;80.53
38054;BME280;23859;50.672;7.164;2023-02-28T06:14:32;102024.09;;;-0.06;81.87
38054;BME280;23859;50.672;7.164;2023-02-28T06:17:00;102027.81;;;-0.17;83.10
38054;BME280;23859;50.672;7.164;2023-02-28T06:19:26;102028.69;;;-0.17;80.06
38054;BME280;23859;50.672;7.164;2023-02-28T06:21:53;102029.75;;;-0.25;80.64
38054;BME280;23859;50.672;7.164;2023-02-28T06:24:21;102031.56;;;-0.29;80.99
38054;BME280;23859;50.672;7.164;2023-02-28T06:26:47;102039.44;;;-0.30;80.63
38054;BME280;23859;50.672;7.164;2023-02-28T06:29:13;102040.28;;;-0.30;82.45
38054;BME280;23859;50.672;7.164;2023-02-28T06:31:43;102043.84;;;-0.34;82.38
38054;BME280;23859;50.672;7.164;2023-02-28T06:34:10;102041.97;;;-0.27;83.45
38054;BME280;23859;50.672;7.164;2023-02-28T06:36:38;102043.59;;;-0.23;82.86
38054;BME280;23859;50.672;7.164;2023-02-28T06:39:04;102042.69;;;-0.21;82.20
38054;BME280;23859;50.672;7.164;2023-02-28T06:41:30;102047.91;;;-0.19;80.83
38054;BME280;23859;50.672;7.164;2023-02-28T06:43:56;102045.91;;;-0.08;80.94
38054;BME280;23859;50.672;7.164;2023-02-28T06:46:23;102046.56;;;-0.01;80.42
38054;BME280;23859;50.672;7.164;2023-02-28T06:48:49;102050.91;;;0.00;80.97
38054;BME280;23859;50.672;7.164;2023-02-28T06:51:18;102052.63;;;0.01;81.48
38054;BME280;23859;50.672;7.164;2023-02-28T06:53:46;102060.34;;;0.07;82.09
38054;BME280;23859;50.672;7.164;2023-02-28T06:56:14;101933.84;;;-0.55;81.81
38054;BME280;23859;50.672;7.164;2023-02-28T06:58:41;102052.94;;;0.24;81.52
38054;BME280;23859;50.672;7.164;2023-02-28T07:01:07;102068.28;;;0.39;80.07
38054;BME280;23859;50.672;7.164;2023-02-28T07:03:35;102064.38;;;0.55;78.59
38054;BME280;23859;50.672;7.164;2023-02-28T07:06:01;102067.34;;;0.75;77.43
38054;BME280;23859;50.672;7.164;2023-02-28T07:08:27;102065.66;;;0.72;79.42
38054;BME280;23859;50.672;7.164;2023-02-28T07:10:54;102071.78;;;0.71;78.04
38054;BME280;23859;50.672;7.164;2023-02-28T07:13:23;102063.44;;;0.91;76.61
38054;BME280;23859;50.672;7.164;2023-02-28T07:16:01;102065.13;;;0.93;77.10
38054;BME280;23859;50.672;7.164;2023-02-28T07:18:27;102067.63;;;0.98;75.43
38054;BME280;23859;50.672;7.164;2023-02-28T07:20:54;102065.72;;;1.34;75.08
38054;BME280;23859;50.672;7.164;2023-02-28T07:23:20;102064.50;;;1.46;75.01
38054;BME280;23859;50.672;7.164;2023-02-28T07:25:47;102063.41;;;1.83;73.42
38054;BME280;23859;50.672;7.164;2023-02-28T07:28:13;102064.94;;;2.17;70.85
38054;BME280;23859;50.672;7.164;2023-02-28T07:30:40;102066.88;;;2.38;69.74
38054;BME280;23859;50.672;7.164;2023-02-28T07:33:06;102062.22;;;2.46;68.90
38054;BME280;23859;50.672;7.164;2023-02-28T07:35:32;102053.13;;;3.55;64.95
38054;BME280;23859;50.672;7.164;2023-02-28T07:37:59;102063.91;;;3.70;62.50
38054;BME280;23859;50.672;7.164;2023-02-28T07:40:25;102057.22;;;3.85;62.68
38054;BME280;23859;50.672;7.164;2023-02-28T07:42:51;102058.28;;;4.02;61.82
38054;BME280;23859;50.672;7.164;2023-02-28T07:45:18;102056.00;;;3.72;62.43
38054;BME280;23859;50.672;7.164;2023-02-28T07:47:45;102063.97;;;3.92;61.03
38054;BME280;23859;50.672;7.164;2023-02-28T07:50:13;102064.66;;;3.74;60.88
38054;BME280;23859;50.672;7.164;2023-02-28T07:52:40;102079.28;;;4.03;58.55
38054;BME280;23859;50.672;7.164;2023-02-28T07:55:08;102063.06;;;3.47;58.49
38054;BME280;23859;50.672;7.164;2023-02-28T07:57:35;102071.41;;;3.81;59.75
38054;BME280;23859;50.672;7.164;2023-02-28T08:00:05;102074.53;;;3.67;59.60
38054;BME280;23859;50.672;7.164;2023-02-28T08:02:31;102076.19;;;3.47;61.96
38054;BME280;23859;50.672;7.164;2023-02-28T08:04:57;102066.94;;;3.83;59.35
38054;BME280;23859;50.672;7.164;2023-02-28T08:07:23;102072.59;;;3.95;58.32
38054;BME280;23859;50.672;7.164;2023-02-28T08:09:49;102075.91;;;4.21;56.90
38054;BME280;23859;50.672;7.164;2023-02-28T08:12:15;102075.47;;;4.10;58.58
38054;BME280;23859;50.672;7.164;2023-02-28T08:14:41;102072.41;;;3.99;58.71
38054;BME280;23859;50.672;7.164;2023-02-28T08:17:09;102080.13;;;4.25;56.42
38054;BME280;23859;50.672;7.164;2023-02-28T08:19:35;102065.53;;;4.61;56.26
38054;BME280;23859;50.672;7.164;2023-02-28T08:22:01;102074.91;;;5.08;56.26
38054;BME280;23859;50.672;7.164;2023-02-28T08:24:27;102065.44;;;6.00;50.00
38054;BME280;23859;50.672;7.164;2023-02-28T08:26:54;102061.66;;;6.41;51.57
38054;BME280;23859;50.672;7.164;2023-02-28T08:29:20;102054.44;;;6.79;50.46
38054;BME280;23859;50.672;7.164;2023-02-28T08:31:46;102058.63;;;7.34;48.43
38054;BME280;23859;50.672;7.164;2023-02-28T08:34:14;102050.38;;;7.23;48.78
38054;BME280;23859;50.672;7.164;2023-02-28T08:36:41;102061.44;;;7.63;46.18
38054;BME280;23859;50.672;7.164;2023-02-28T08:39:09;102046.22;;;8.45;45.23
38054;BME280;23859;50.672;7.164;2023-02-28T08:41:35;102045.44;;;8.12;44.53
38054;BME280;23859;50.672;7.164;2023-02-28T08:44:02;102044.16;;;8.95;44.39
38054;BME280;23859;50.672;7.164;2023-02-28T08:46:28;102041.59;;;9.64;41.56
38054;BME280;23859;50.672;7.164;2023-02-28T08:48:55;102027.31;;;10.21;43.24
38054;BME280;23859;50.672;7.164;2023-02-28T08:51:25;102045.19;;;8.92;41.81
38054;BME280;23859;50.672;7.164;2023-02-28T08:53:57;102036.31;;;10.97;39.69
38054;BME280;23859;50.672;7.164;2023-02-28T08:56:23;102040.09;;;11.44;38.69
38054;BME280;23859;50.672;7.164;2023-02-28T08:58:50;102032.25;;;10.92;38.63
38054;BME280;23859;50.672;7.164;2023-02-28T09:01:24;102028.44;;;10.31;41.80
38054;BME280;23859;50.672;7.164;2023-02-28T09:03:50;102039.88;;;10.19;40.80
38054;BME280;23859;50.672;7.164;2023-02-28T09:06:18;102034.84;;;8.88;43.23
38054;BME280;23859;50.672;7.164;2023-02-28T09:08:45;102034.34;;;8.52;40.56
38054;BME280;23859;50.672;7.164;2023-02-28T09:11:11;101942.91;;;8.31;41.63
38054;BME280;23859;50.672;7.164;2023-02-28T09:13:38;102038.16;;;9.21;41.77
38054;BME280;23859;50.672;7.164;2023-02-28T09:16:07;102035.03;;;8.40;42.13
38054;BME280;23859;50.672;7.164;2023-02-28T09:18:35;102046.97;;;7.86;41.03
38054;BME280;23859;50.672;7.164;2023-02-28T09:21:05;102037.75;;;8.08;41.61
38054;BME280;23859;50.672;7.164;2023-02-28T09:23:31;102051.25;;;8.03;42.95
38054;BME280;23859;50.672;7.164;2023-02-28T09:25:57;102043.72;;;7.81;43.23
38054;BME280;23859;50.672;7.164;2023-02-28T09:28:23;102050.53;;;7.20;43.31
38054;BME280;23859;50.672;7.164;2023-02-28T09:30:52;102041.75;;;7.52;45.14
38054;BME280;23859;50.672;7.164;2023-02-28T09:33:19;102031.94;;;8.48;43.68
38054;BME280;23859;50.672;7.164;2023-02-28T09:35:49;102043.25;;;8.36;44.41
38054;BME280;23859;50.672;7.164;2023-02-28T09:38:16;102035.34;;;10.07;41.11
38054;BME280;23859;50.672;7.164;2023-02-28T09:41:00;102029.25;;;10.45;38.07
38054;BME280;23859;50.672;7.164;2023-02-28T09:43:33;102037.44;;;9.74;38.62
38054;BME280;23859;50.672;7.164;2023-02-28T09:48:36;102037.34;;;9.62;38.23
38054;BME280;23859;50.672;7.164;2023-02-28T09:51:08;102024.91;;;10.57;36.79
38054;BME280;23859;50.672;7.164;2023-02-28T09:53:37;102025.22;;;10.26;36.52
38054;BME280;23859;50.672;7.164;2023-02-28T09:56:09;102027.00;;;9.99;35.70
38054;BME280;23859;50.672;7.164;2023-02-28T10:04:16;102021.50;;;8.60;40.31
38054;BME280;23859;50.672;7.164;2023-02-28T10:06:50;102026.78;;;8.75;39.72
38054;BME280;23859;50.672;7.164;2023-02-28T10:09:23;102021.09;;;9.11;40.31
38054;BME280;23859;50.672;7.164;2023-02-28T10:11:50;102021.09;;;9.25;37.60
38054;BME280;23859;50.672;7.164;2023-02-28T10:14:23;102021.22;;;10.33;35.16
38054;BME280;23859;50.672;7.164;2023-02-28T10:17:11;102023.97;;;10.31;33.39
38054;BME280;23859;50.672;7.164;2023-02-28T10:20:00;102021.59;;;8.88;36.91
38054;BME280;23859;50.672;7.164;2023-02-28T10:22:34;102012.47;;;8.49;37.63
38054;BME280;23859;50.672;7.164;2023-02-28T10:25:17;102022.44;;;8.14;37.56
38054;BME280;23859;50.672;7.164;2023-02-28T10:27:44;102006.91;;;8.53;39.42
38054;BME280;23859;50.672;7.164;2023-02-28T10:30:12;102014.09;;;8.05;38.55
38054;BME280;23859;50.672;7.164;2023-02-28T10:32:42;102009.09;;;8.31;39.06
38054;BME280;23859;50.672;7.164;2023-02-28T10:37:41;102000.34;;;9.03;37.18
38054;BME280;23859;50.672;7.164;2023-02-28T10:40:30;101990.31;;;10.83;34.13
38054;BME280;23859;50.672;7.164;2023-02-28T10:45:38;101978.44;;;14.96;30.98
38054;BME280;23859;50.672;7.164;2023-02-28T10:59:02;101974.31;;;14.41;28.53
38054;BME280;23859;50.672;7.164;2023-02-28T11:01:38;101983.81;;;12.45;28.61
38054;BME280;23859;50.672;7.164;2023-02-28T11:07:19;101981.50;;;10.44;32.60
38054;BME280;23859;50.672;7.164;2023-02-28T11:09:49;101986.47;;;11.98;31.45
38054;BME280;23859;50.672;7.164;2023-02-28T11:12:29;101977.78;;;12.07;29.85
38054;BME280;23859;50.672;7.164;2023-02-28T11:15:04;101977.38;;;11.53;29.37
38054;BME280;23859;50.672;7.164;2023-02-28T11:17:32;101976.75;;;11.00;31.43
38054;BME280;23859;50.672;7.164;2023-02-28T11:20:03;101986.53;;;11.24;30.19
38054;BME280;23859;50.672;7.164;2023-02-28T11:22:37;101972.00;;;10.78;30.93
38054;BME280;23859;50.672;7.164;2023-02-28T11:25:15;101967.56;;;10.14;32.25
38054;BME280;23859;50.672;7.164;2023-02-28T11:27:54;101966.97;;;11.25;30.47
38054;BME280;23859;50.672;7.164;2023-02-28T11:30:28;101972.47;;;10.97;32.71
38054;BME280;23859;50.672;7.164;2023-02-28T11:32:54;101974.53;;;11.31;30.60
38054;BME280;23859;50.672;7.164;2023-02-28T11:35:38;101865.66;;;11.03;29.97
38054;BME280;23859;50.672;7.164;2023-02-28T11:38:09;101970.25;;;10.53;32.66
38054;BME280;23859;50.672;7.164;2023-02-28T11:41:11;101973.09;;;10.11;33.79
38054;BME280;23859;50.672;7.164;2023-02-28T11:46:41;101981.66;;;9.88;32.41
38054;BME280;23859;50.672;7.164;2023-02-28T11:52:20;101960.50;;;10.27;34.31
38054;BME280;23859;50.672;7.164;2023-02-28T11:54:56;101961.31;;;11.42;31.12
38054;BME280;23859;50.672;7.164;2023-02-28T11:57:46;101962.25;;;10.91;32.31
38054;BME280;23859;50.672;7.164;2023-02-28T12:00:35;101957.06;;;12.81;28.41
38054;BME280;23859;50.672;7.164;2023-02-28T12:06:01;101975.41;;;10.03;31.99
38054;BME280;23859;50.672;7.164;2023-02-28T12:08:51;101962.34;;;9.03;32.61
38054;BME280;23859;50.672;7.164;2023-02-28T12:11:39;101972.69;;;8.93;32.79
38054;BME280;23859;50.672;7.164;2023-02-28T12:14:46;101962.56;;;9.00;35.19
38054;BME280;23859;50.672;7.164;2023-02-28T12:22:55;101962.91;;;10.17;32.74
38054;BME280;23859;50.672;7.164;2023-02-28T12:28:25;101955.31;;;8.74;33.60
38054;BME280;23859;50.672;7.164;2023-02-28T12:31:09;101949.38;;;8.55;34.14
38054;BME280;23859;50.672;7.164;2023-02-28T12:33:39;101950.66;;;8.77;34.05
38054;BME280;23859;50.672;7.164;2023-02-28T12:36:13;101950.00;;;9.85;32.58
38054;BME280;23859;50.672;7.164;2023-02-28T12:38:55;101941.91;;;10.00;32.55
38054;BME280;23859;50.672;7.164;2023-02-28T12:41:41;101944.69;;;9.85;33.29
38054;BME280;23859;50.672;7.164;2023-02-28T12:44:30;101939.28;;;10.78;33.43
38054;BME280;23859;50.672;7.164;2023-02-28T12:47:02;101927.44;;;11.56;30.98
38054;BME280;23859;50.672;7.164;2023-02-28T12:49:58;101924.38;;;13.01;30.81
38054;BME280;23859;50.672;7.164;2023-02-28T12:52:36;101919.03;;;12.56;30.15
38054;BME280;23859;50.672;7.164;2023-02-28T12:58:01;101742.69;;;11.46;29.64
38054;BME280;23859;50.672;7.164;2023-02-28T13:00:36;101916.59;;;13.85;29.06
38054;BME280;23859;50.672;7.164;2023-02-28T13:05:56;101905.91;;;15.59;25.56
38054;BME280;23859;50.672;7.164;2023-02-28T13:08:57;101913.44;;;15.35;25.70
38054;BME280;23859;50.672;7.164;2023-02-28T13:13:58;101901.59;;;15.17;27.35
38054;BME280;23859;50.672;7.164;2023-02-28T13:16:25;101895.38;;;14.46;26.63
38054;BME280;23859;50.672;7.164;2023-02-28T13:18:51;101894.91;;;14.10;26.92
38054;BME280;23859;50.672;7.164;2023-02-28T13:21:27;101892.31;;;14.51;27.23
38054;BME280;23859;50.672;7.164;2023-02-28T13:47:36;101891.03;;;11.32;31.41
38054;BME280;23859;50.672;7.164;2023-02-28T13:55:46;101891.78;;;12.29;30.79
38054;BME280;23859;50.672;7.164;2023-02-28T14:01:03;101879.28;;;12.29;31.25
38054;BME280;23859;50.672;7.164;2023-02-28T14:09:41;101875.84;;;9.42;35.16
38054;BME280;23859;50.672;7.164;2023-02-28T14:11:42;101880.06;;;9.72;34.54
38054;BME280;23859;50.672;7.164;2023-02-28T14:14:54;101877.56;;;11.10;32.69
38054;BME280;23859;50.672;7.164;2023-02-28T14:16:56;101876.16;;;12.35;29.92
38054;BME280;23859;50.672;7.164;2023-02-28T14:19:27;101880.25;;;12.28;30.32
38054;BME280;23859;50.672;7.164;2023-02-28T14:22:25;101871.25;;;13.20;29.35
38054;BME280;23859;50.672;7.164;2023-02-28T14:28:09;101875.75;;;13.30;28.75
38054;BME280;23859;50.672;7.164;2023-02-28T14:36:39;101862.34;;;14.36;27.10
38054;BME280;23859;50.672;7.164;2023-02-28T14:39:11;101865.81;;;14.88;26.93
38054;BME280;23859;50.672;7.164;2023-02-28T14:41:40;101867.63;;;14.88;26.92
38054;BME280;23859;50.672;7.164;2023-02-28T14:46:45;101851.41;;;16.26;24.79
38054;BME280;23859;50.672;7.164;2023-02-28T14:49:23;101844.97;;;17.29;24.62
38054;BME280;23859;50.672;7.164;2023-02-28T14:52:00;101855.00;;;15.59;25.72
38054;BME280;23859;50.672;7.164;2023-02-28T14:54:27;101854.06;;;15.88;26.10
38054;BME280;23859;50.672;7.164;2023-02-28T14:56:54;101843.91;;;17.13;24.20
38054;BME280;23859;50.672;7.164;2023-02-28T14:59:32;101853.31;;;16.80;24.78
38054;BME280;23859;50.672;7.164;2023-02-28T15:02:23;101845.41;;;16.79;24.33
38054;BME280;23859;50.672;7.164;2023-02-28T15:05:10;101849.66;;;14.99;25.53
38054;BME280;23859;50.672;7.164;2023-02-28T15:07:43;101865.19;;;13.18;27.92
38054;BME280;23859;50.672;7.164;2023-02-28T15:10:19;101873.09;;;10.49;31.56
38054;BME280;23859;50.672;7.164;2023-02-28T15:12:51;101876.84;;;8.99;34.46
38054;BME280;23859;50.672;7.164;2023-02-28T15:15:19;101877.13;;;8.53;36.26
38054;BME280;23859;50.672;7.164;2023-02-28T15:17:51;101871.00;;;8.37;35.85
38054;BME280;23859;50.672;7.164;2023-02-28T15:20:19;101874.47;;;8.24;36.78
38054;BME280;23859;50.672;7.164;2023-02-28T15:22:47;101873.50;;;7.95;36.48
38054;BME280;23859;50.672;7.164;2023-02-28T15:25:19;101871.50;;;7.08;39.04